Time;durP1;ratioP1;P1;durP2;ratioP2;P2;SDS_P1;SDS_P2;PMS_P1;PMS_P2;Temp;Humidity;BMP_temperature;BMP_pressure;BME280_temperature;BME280_humidity;BME280_pressure;Samples;Min_cycle;Max_cycle;Signal;HPM_P1;HPM_P2
2021/12/24 00:00:10;;;;;;;18.90;7.70;;;14.90;66.40;;;;;;1989384;28;20182;-65
2021/12/24 00:01:11;;;;;;;14.65;8.93;;;14.90;66.40;;;;;;1989515;28;20213;-66
2021/12/24 00:02:10;;;;;;;18.92;7.10;;;14.90;66.30;;;;;;1989366;28;20194;-67
2021/12/24 00:03:09;;;;;;;22.17;8.73;;;14.90;66.40;;;;;;1989559;28;20177;-67
2021/12/24 00:04:09;;;;;;;18.23;9.38;;;14.90;66.40;;;;;;1989519;28;20539;-67
2021/12/24 00:05:08;;;;;;;16.20;8.00;;;14.90;66.20;;;;;;1989392;28;20197;-66
2021/12/24 00:06:07;;;;;;;17.55;7.70;;;14.90;66.20;;;;;;1989348;28;20178;-67
2021/12/24 00:07:06;;;;;;;19.15;7.95;;;15.00;66.30;;;;;;1989441;28;20197;-66
2021/12/24 00:08:05;;;;;;;15.10;8.07;;;14.90;66.30;;;;;;1989397;28;20308;-67
2021/12/24 00:09:05;;;;;;;20.63;7.97;;;14.90;66.10;;;;;;1989426;28;20186;-65
2021/12/24 00:10:06;;;;;;;14.57;7.20;;;14.90;66.10;;;;;;1989371;28;20183;-65
2021/12/24 00:11:06;;;;;;;17.27;7.28;;;14.90;66.10;;;;;;1989295;28;20181;-66
2021/12/24 00:12:12;;;;;;;16.45;8.00;;;15.00;66.20;;;;;;1989176;28;20186;-66
2021/12/24 00:13:14;;;;;;;19.75;7.60;;;15.00;66.00;;;;;;1989489;28;20166;-66
2021/12/24 00:14:12;;;;;;;13.32;7.60;;;15.00;66.00;;;;;;1988920;28;20181;-66
2021/12/24 00:16:44;;;;;;;16.25;8.00;;;15.00;66.10;;;;;;1980953;28;20310;-66
2021/12/24 00:17:43;;;;;;;19.98;8.60;;;15.00;66.10;;;;;;1989353;28;20217;-65
2021/12/24 00:18:51;;;;;;;13.90;7.60;;;15.00;66.10;;;;;;1989347;28;20228;-66
2021/12/24 00:20:08;;;;;;;13.80;6.18;;;15.00;66.00;;;;;;1989269;28;20177;-67
2021/12/24 00:22:08;;;;;;;16.88;8.77;;;15.00;66.00;;;;;;1989289;28;20159;-66
2021/12/24 00:35:10;;;;;;;17.27;6.93;;;15.00;65.40;;;;;;1989211;28;20213;-73
2021/12/24 00:36:09;;;;;;;14.93;7.10;;;14.90;65.30;;;;;;1988483;28;20560;-71
2021/12/24 00:37:07;;;;;;;18.53;8.50;;;14.90;65.30;;;;;;1988641;28;20246;-72
2021/12/24 00:38:10;;;;;;;12.43;7.10;;;15.00;65.40;;;;;;1989340;28;20183;-73
2021/12/24 00:39:08;;;;;;;15.63;6.93;;;15.00;65.50;;;;;;1989222;28;20217;-74
2021/12/24 00:40:20;;;;;;;13.63;6.47;;;14.90;65.80;;;;;;1989156;28;20229;-74
2021/12/24 00:41:19;;;;;;;15.02;7.05;;;15.00;65.30;;;;;;1989300;28;20162;-74
2021/12/24 00:42:17;;;;;;;14.73;6.80;;;15.00;65.30;;;;;;1989237;28;20669;-71
2021/12/24 00:43:17;;;;;;;12.57;6.30;;;15.00;65.20;;;;;;1989353;28;20549;-71
2021/12/24 00:44:15;;;;;;;16.48;8.25;;;15.00;65.90;;;;;;1989435;28;20177;-72
2021/12/24 00:45:17;;;;;;;14.17;7.07;;;15.00;65.20;;;;;;1989362;28;20623;-74
2021/12/24 00:46:15;;;;;;;13.02;6.97;;;15.00;65.20;;;;;;1989530;28;20262;-71
2021/12/24 00:47:15;;;;;;;19.50;8.03;;;15.00;65.10;;;;;;1989888;28;20202;-73
2021/12/24 00:48:16;;;;;;;11.05;6.38;;;15.00;65.00;;;;;;1989212;28;20265;-73
2021/12/24 00:49:15;;;;;;;12.73;6.55;;;15.10;65.30;;;;;;1996791;28;20167;-72
2021/12/24 00:50:19;;;;;;;22.03;7.43;;;15.10;65.30;;;;;;1995148;28;20177;-71
2021/12/24 00:51:32;;;;;;;14.52;6.57;;;15.10;65.70;;;;;;1998310;28;20146;-75
2021/12/24 00:55:57;;;;;;;10.13;5.53;;;15.10;67.60;;;;;;1990162;28;20378;-73
2021/12/24 00:56:56;;;;;;;13.43;7.32;;;15.10;67.50;;;;;;1989538;28;20174;-73
2021/12/24 00:57:57;;;;;;;13.60;6.50;;;15.10;67.60;;;;;;1989171;28;20213;-73
2021/12/24 00:58:56;;;;;;;11.18;6.38;;;15.10;67.60;;;;;;1989153;28;20196;-73
2021/12/24 00:59:55;;;;;;;12.27;6.13;;;15.10;67.80;;;;;;1989092;28;20257;-72
2021/12/24 01:00:54;;;;;;;12.30;6.00;;;15.10;68.10;;;;;;1988621;28;20430;-73
2021/12/24 01:01:52;;;;;;;12.80;7.07;;;15.20;72.00;;;;;;1988994;28;20286;-72
2021/12/24 01:02:53;;;;;;;10.50;6.53;;;15.20;71.20;;;;;;1989052;28;20194;-72
2021/12/24 01:03:51;;;;;;;13.18;7.05;;;15.10;71.20;;;;;;1989111;28;20229;-73
2021/12/24 01:04:50;;;;;;;13.13;7.20;;;15.20;71.60;;;;;;1989037;28;20190;-72
2021/12/24 01:05:48;;;;;;;19.27;7.23;;;15.20;72.00;;;;;;1989140;28;20185;-72
2021/12/24 01:06:47;;;;;;;14.10;6.93;;;15.20;72.40;;;;;;1988991;28;20273;-72
2021/12/24 01:07:46;;;;;;;11.37;6.30;;;15.20;72.90;;;;;;1989047;28;20528;-72
2021/12/24 01:08:44;;;;;;;15.30;7.15;;;15.20;73.50;;;;;;1988955;28;20174;-73
2021/12/24 01:09:43;;;;;;;10.47;6.50;;;15.20;74.00;;;;;;1989080;28;20178;-72
2021/12/24 01:10:45;;;;;;;11.70;6.73;;;15.20;74.60;;;;;;1989193;28;20641;-72
2021/12/24 01:11:44;;;;;;;16.65;7.30;;;15.30;75.60;;;;;;1989118;28;20580;-72
2021/12/24 01:12:43;;;;;;;9.80;6.10;;;15.20;76.40;;;;;;1988403;28;20230;-73
2021/12/24 01:13:41;;;;;;;17.60;6.80;;;15.20;76.80;;;;;;1988432;28;20253;-73
2021/12/24 01:14:40;;;;;;;15.40;7.27;;;15.20;77.00;;;;;;1989003;28;20384;-72
2021/12/24 01:15:50;;;;;;;11.87;6.87;;;15.20;77.00;;;;;;1989036;28;20175;-72
2021/12/24 01:17:04;;;;;;;13.45;6.25;;;15.10;77.30;;;;;;1988931;28;20209;-73
2021/12/24 01:18:12;;;;;;;10.63;6.05;;;15.10;77.70;;;;;;1989053;28;20158;-73
2021/12/24 01:19:19;;;;;;;13.85;6.20;;;15.10;77.80;;;;;;1989075;28;20489;-72
2021/12/24 01:20:26;;;;;;;11.95;6.20;;;15.20;78.20;;;;;;1988343;28;20682;-71
2021/12/24 01:21:48;;;;;;;13.65;6.05;;;15.20;78.40;;;;;;1981096;28;20171;-72
2021/12/24 01:24:02;;;;;;;14.98;6.88;;;15.20;77.30;;;;;;1988979;28;20241;-71
2021/12/24 01:26:37;;;;;;;10.50;6.40;;;15.20;77.00;;;;;;1988853;28;20221;-71
2021/12/24 01:29:29;;;;;;;14.23;6.82;;;15.10;77.40;;;;;;1988491;28;20245;-71
2021/12/24 01:38:08;;;;;;;10.35;6.22;;;15.20;70.60;;;;;;1988963;28;20185;-71
2021/12/24 01:39:20;;;;;;;8.25;5.72;;;15.20;72.80;;;;;;1988948;28;20162;-72
2021/12/24 01:42:55;;;;;;;10.73;5.75;;;15.20;72.50;;;;;;1988979;28;20249;-72
2021/12/24 01:43:53;;;;;;;13.32;6.85;;;15.20;72.80;;;;;;1988931;28;20150;-72
2021/12/24 01:44:52;;;;;;;9.27;5.97;;;15.20;72.80;;;;;;1988913;28;20254;-73
2021/12/24 01:45:54;;;;;;;10.77;6.57;;;15.20;72.60;;;;;;1988823;28;20171;-72
2021/12/24 01:46:54;;;;;;;12.85;6.50;;;15.30;72.80;;;;;;1988709;28;20202;-71
2021/12/24 01:47:57;;;;;;;10.88;6.50;;;15.30;72.60;;;;;;1988855;28;20178;-71
2021/12/24 01:48:55;;;;;;;8.80;6.25;;;15.20;72.70;;;;;;1988281;28;20170;-71
2021/12/24 01:49:54;;;;;;;12.47;6.00;;;15.20;72.90;;;;;;1988390;28;20167;-71
2021/12/24 01:50:54;;;;;;;13.37;6.50;;;15.20;73.50;;;;;;1988942;28;20225;-71
2021/12/24 01:51:53;;;;;;;12.68;6.35;;;15.20;74.10;;;;;;1988724;28;20231;-72
2021/12/24 01:52:53;;;;;;;9.55;6.03;;;15.20;74.90;;;;;;1988846;28;20533;-72
2021/12/24 01:53:53;;;;;;;10.60;5.75;;;15.20;75.50;;;;;;1988843;28;20508;-72
2021/12/24 01:54:52;;;;;;;12.95;6.88;;;15.30;76.50;;;;;;1988919;28;20309;-71
2021/12/24 01:55:52;;;;;;;14.43;6.85;;;15.30;77.70;;;;;;1988807;28;20177;-73
2021/12/24 01:56:51;;;;;;;10.85;5.97;;;15.20;78.00;;;;;;1988727;28;20198;-72
2021/12/24 01:57:50;;;;;;;10.30;5.67;;;15.40;78.30;;;;;;1988802;28;20177;-72
2021/12/24 01:58:48;;;;;;;16.08;6.82;;;15.20;78.50;;;;;;1988813;28;20225;-72
2021/12/24 01:59:47;;;;;;;12.40;7.07;;;15.30;79.00;;;;;;1988823;28;20167;-72
2021/12/24 02:00:50;;;;;;;11.80;6.73;;;15.30;79.40;;;;;;1988816;28;20170;-72
2021/12/24 02:01:51;;;;;;;9.27;5.55;;;15.30;79.30;;;;;;1988751;28;20688;-71
2021/12/24 02:02:50;;;;;;;12.55;5.95;;;15.30;78.80;;;;;;1988792;28;20202;-72
2021/12/24 02:03:48;;;;;;;14.07;6.63;;;15.30;78.60;;;;;;1988762;28;20654;-72
2021/12/24 02:04:47;;;;;;;12.73;6.00;;;15.30;78.80;;;;;;1988867;28;20414;-72
2021/12/24 02:05:46;;;;;;;9.67;6.00;;;15.30;78.70;;;;;;1988782;28;20249;-72
2021/12/24 02:06:46;;;;;;;14.10;7.60;;;15.30;78.50;;;;;;1988697;28;20194;-72
2021/12/24 02:07:45;;;;;;;12.27;6.20;;;15.40;78.00;;;;;;1988757;28;20178;-71
2021/12/24 02:08:44;;;;;;;12.63;6.55;;;15.30;76.60;;;;;;1988092;28;20174;-72
2021/12/24 02:09:42;;;;;;;14.73;6.47;;;15.30;76.20;;;;;;1988177;28;20262;-71
2021/12/24 02:10:42;;;;;;;12.03;6.33;;;15.30;76.10;;;;;;1988753;28;20205;-72
2021/12/24 02:11:41;;;;;;;11.13;6.68;;;15.30;76.10;;;;;;1988731;28;20253;-72
2021/12/24 02:12:39;;;;;;;11.13;5.80;;;15.30;76.00;;;;;;1988942;28;20178;-71
2021/12/24 02:13:41;;;;;;;12.80;6.47;;;15.30;76.10;;;;;;1990288;28;20500;-72
2021/12/24 02:14:40;;;;;;;9.77;5.28;;;15.20;76.10;;;;;;1990344;28;20179;-72
2021/12/24 02:28:19;;;;;;;11.20;5.93;;;15.20;76.70;;;;;;1990222;28;20167;-71
2021/12/24 02:29:01;;;;;;;14.15;6.82;;;15.20;76.80;;;;;;1990121;28;20241;-71
2021/12/24 02:30:00;;;;;;;11.37;6.60;;;15.20;76.60;;;;;;1990097;28;20163;-72
2021/12/24 02:30:58;;;;;;;12.73;6.77;;;15.20;76.40;;;;;;1990254;28;20177;-72
2021/12/24 02:31:57;;;;;;;12.07;6.07;;;15.20;76.00;;;;;;1990024;28;20297;-72
2021/12/24 02:32:55;;;;;;;11.90;6.30;;;15.20;75.90;;;;;;1990229;28;20163;-72
2021/12/24 02:33:54;;;;;;;11.03;5.60;;;15.20;75.80;;;;;;1989468;28;20225;-71
2021/12/24 02:34:52;;;;;;;9.70;5.80;;;15.20;75.80;;;;;;1989524;28;20193;-72
2021/12/24 02:35:52;;;;;;;10.20;5.47;;;15.30;75.80;;;;;;1989987;28;20222;-72
2021/12/24 02:36:51;;;;;;;16.48;5.93;;;15.20;75.70;;;;;;1989908;28;20244;-72
2021/12/24 02:37:51;;;;;;;8.90;5.27;;;15.30;75.70;;;;;;1990060;28;20175;-72
2021/12/24 02:38:50;;;;;;;11.95;6.78;;;15.20;75.80;;;;;;1990020;28;20162;-72
2021/12/24 02:39:48;;;;;;;10.95;5.90;;;15.20;76.00;;;;;;1990030;28;20186;-72
2021/12/24 02:40:47;;;;;;;13.30;6.20;;;15.30;76.10;;;;;;1990076;28;20633;-72
2021/12/24 02:41:45;;;;;;;11.40;5.83;;;15.30;76.20;;;;;;1990051;28;20547;-71
2021/12/24 02:42:49;;;;;;;13.83;6.00;;;15.30;76.00;;;;;;1990137;28;20617;-71
2021/12/24 02:43:49;;;;;;;12.20;7.63;;;15.30;76.30;;;;;;1989365;28;20202;-72
2021/12/24 02:44:50;;;;;;;11.82;6.47;;;15.30;76.40;;;;;;1989595;28;20182;-71
2021/12/24 02:45:52;;;;;;;9.73;5.82;;;15.30;76.70;;;;;;1989948;28;20627;-71
2021/12/24 02:54:52;;;;;;;11.25;5.70;;;15.20;75.70;;;;;;1989945;28;20611;-71
2021/12/24 02:55:52;;;;;;;10.90;5.63;;;15.20;75.20;;;;;;1989888;28;20273;-71
2021/12/24 02:56:53;;;;;;;11.35;6.28;;;15.20;75.00;;;;;;1989901;28;20201;-71
2021/12/24 02:57:52;;;;;;;9.40;5.50;;;15.20;74.80;;;;;;1989845;28;20171;-71
2021/12/24 02:58:50;;;;;;;9.93;4.90;;;15.20;74.70;;;;;;1989886;28;20210;-71
2021/12/24 02:59:59;;;;;;;11.50;5.87;;;15.20;74.60;;;;;;1990103;28;20179;-71
2021/12/24 03:00:57;;;;;;;9.38;6.15;;;15.40;74.70;;;;;;1990044;28;20158;-71
2021/12/24 03:01:58;;;;;;;9.10;5.83;;;15.20;74.40;;;;;;1989211;28;20179;-71
2021/12/24 03:02:56;;;;;;;10.85;5.68;;;15.20;74.40;;;;;;1989317;28;20202;-71
2021/12/24 03:03:55;;;;;;;11.30;5.50;;;15.30;74.40;;;;;;1989883;28;20178;-71
2021/12/24 03:04:54;;;;;;;10.30;5.53;;;15.30;74.50;;;;;;1989869;28;20576;-71
2021/12/24 03:05:53;;;;;;;11.33;5.80;;;15.30;74.40;;;;;;1989911;28;20226;-71
2021/12/24 03:06:53;;;;;;;8.10;5.70;;;15.20;74.30;;;;;;1989797;28;20666;-71
2021/12/24 03:07:51;;;;;;;10.65;6.38;;;15.20;74.50;;;;;;1989935;28;20615;-71
2021/12/24 03:08:50;;;;;;;9.50;5.60;;;15.30;74.40;;;;;;1989835;28;20183;-71
2021/12/24 03:09:49;;;;;;;9.43;5.37;;;15.30;74.50;;;;;;1989947;28;20171;-71
2021/12/24 03:10:47;;;;;;;13.63;6.47;;;15.30;74.40;;;;;;1989979;28;20453;-71
2021/12/24 03:11:50;;;;;;;12.00;5.13;;;15.20;74.50;;;;;;1989853;28;20246;-71
2021/12/24 03:12:51;;;;;;;11.15;6.00;;;15.30;74.60;;;;;;1989852;28;20186;-72
2021/12/24 03:13:52;;;;;;;11.98;6.05;;;15.30;74.60;;;;;;1989815;28;20532;-71
2021/12/24 03:14:50;;;;;;;10.98;7.15;;;15.30;74.70;;;;;;1989868;28;20186;-71
2021/12/24 03:15:51;;;;;;;9.20;5.37;;;15.20;74.50;;;;;;1989732;28;20257;-71
2021/12/24 03:16:57;;;;;;;9.65;5.40;;;15.20;74.60;;;;;;1989661;28;20233;-71
2021/12/24 03:17:59;;;;;;;9.43;5.25;;;15.20;74.60;;;;;;1989710;28;20155;-71
2021/12/24 03:18:57;;;;;;;10.13;5.00;;;15.30;74.70;;;;;;1989709;28;20187;-71
2021/12/24 03:20:01;;;;;;;11.70;6.10;;;15.30;74.60;;;;;;1989831;28;20187;-71
2021/12/24 03:21:06;;;;;;;10.10;5.35;;;15.30;74.70;;;;;;1989940;28;20155;-71
2021/12/24 03:23:35;;;;;;;12.65;6.25;;;15.20;74.50;;;;;;1989746;28;20614;-71
2021/12/24 03:24:34;;;;;;;9.70;5.07;;;15.20;74.50;;;;;;1989693;28;20159;-71
2021/12/24 03:25:33;;;;;;;12.90;5.60;;;15.20;74.60;;;;;;1989314;28;20198;-71
2021/12/24 03:26:35;;;;;;;9.55;5.53;;;15.20;75.40;;;;;;1989000;28;20724;-71
2021/12/24 03:27:33;;;;;;;11.20;5.00;;;15.20;74.80;;;;;;1989652;28;20202;-71
2021/12/24 03:28:32;;;;;;;9.33;5.60;;;15.20;74.80;;;;;;1989632;28;20264;-71
2021/12/24 03:29:31;;;;;;;9.07;5.45;;;15.20;74.80;;;;;;1989555;28;20174;-71
2021/12/24 03:30:30;;;;;;;11.00;6.27;;;15.20;74.80;;;;;;1989767;28;20639;-71
2021/12/24 03:31:28;;;;;;;8.23;4.40;;;15.20;74.80;;;;;;1989717;28;20170;-71
2021/12/24 03:32:28;;;;;;;9.07;5.23;;;15.20;74.90;;;;;;1989478;28;20225;-71
2021/12/24 03:33:26;;;;;;;9.20;5.22;;;15.20;74.90;;;;;;1989594;28;20511;-71
2021/12/24 03:34:25;;;;;;;10.00;5.63;;;15.20;74.90;;;;;;1988911;28;20192;-71
2021/12/24 03:35:24;;;;;;;11.50;6.23;;;15.20;74.90;;;;;;1981183;29;20190;-71
2021/12/24 03:36:26;;;;;;;9.03;5.20;;;15.20;74.90;;;;;;1988440;28;20504;-71
2021/12/24 03:37:25;;;;;;;10.88;6.10;;;15.20;75.10;;;;;;1989004;28;20315;-71
2021/12/24 03:38:23;;;;;;;8.57;5.20;;;15.20;75.10;;;;;;1989581;28;20396;-71
2021/12/24 03:39:22;;;;;;;9.80;5.77;;;15.20;74.90;;;;;;1989553;28;20230;-72
2021/12/24 03:40:20;;;;;;;9.00;6.13;;;15.20;75.10;;;;;;1989574;28;20185;-71
2021/12/24 03:41:20;;;;;;;9.60;5.47;;;15.10;75.00;;;;;;1989513;28;20198;-71
2021/12/24 03:42:19;;;;;;;8.25;5.43;;;15.20;75.30;;;;;;1989715;28;20523;-71
2021/12/24 03:43:17;;;;;;;9.63;5.27;;;15.20;75.10;;;;;;1989575;28;20228;-72
2021/12/24 03:44:17;;;;;;;10.77;4.90;;;15.20;75.20;;;;;;1989810;28;20178;-71
2021/12/24 03:45:28;;;;;;;10.00;4.72;;;15.20;75.30;;;;;;1989675;28;20261;-71
2021/12/24 03:46:42;;;;;;;9.95;4.93;;;15.20;75.40;;;;;;1989005;28;20658;-71
2021/12/24 03:47:42;;;;;;;9.88;5.43;;;15.20;75.60;;;;;;1989199;28;20155;-71
2021/12/24 03:48:50;;;;;;;9.23;5.20;;;15.10;75.60;;;;;;1989599;28;20166;-71
2021/12/24 03:50:58;;;;;;;7.80;4.97;;;15.20;75.80;;;;;;1989901;28;20179;-71
2021/12/24 03:54:55;;;;;;;9.98;5.30;;;15.10;76.00;;;;;;1988801;28;20193;-71
2021/12/24 03:54:58;;;;;;;12.43;5.20;;;15.10;76.10;;;;;;1989526;28;20182;-71
2021/12/24 03:55:57;;;;;;;7.95;4.53;;;15.10;76.30;;;;;;1989823;28;20241;-71
2021/12/24 03:56:55;;;;;;;10.57;5.60;;;15.10;76.50;;;;;;1990297;28;20182;-71
2021/12/24 03:57:54;;;;;;;8.03;5.20;;;15.10;76.40;;;;;;1992218;28;20171;-72
2021/12/24 03:58:52;;;;;;;8.90;4.83;;;15.10;76.50;;;;;;1993035;28;20258;-72
2021/12/24 03:59:51;;;;;;;8.23;4.83;;;15.10;76.50;;;;;;1992715;28;20198;-72
2021/12/24 04:00:51;;;;;;;8.70;5.03;;;15.10;76.60;;;;;;1991342;28;20294;-72
2021/12/24 04:01:50;;;;;;;9.98;5.30;;;15.10;76.60;;;;;;1989597;28;20421;-71
2021/12/24 04:02:48;;;;;;;10.33;5.47;;;15.10;76.70;;;;;;1989794;28;20258;-72
2021/12/24 04:03:47;;;;;;;7.10;4.83;;;15.10;76.70;;;;;;1990309;28;20509;-72
2021/12/24 04:04:46;;;;;;;8.00;5.00;;;15.10;76.80;;;;;;1990353;28;20166;-71
2021/12/24 04:05:46;;;;;;;7.27;4.33;;;15.10;76.80;;;;;;1989519;28;20410;-72
2021/12/24 04:06:47;;;;;;;9.15;5.07;;;15.00;76.80;;;;;;1989364;28;20426;-72
2021/12/24 04:07:45;;;;;;;7.20;4.40;;;15.10;77.00;;;;;;1989346;28;20171;-72
2021/12/24 04:08:45;;;;;;;8.10;4.83;;;15.10;76.80;;;;;;1989562;28;20643;-72
2021/12/24 04:09:54;;;;;;;9.82;5.63;;;15.00;76.90;;;;;;1989400;28;20648;-72
2021/12/24 04:10:52;;;;;;;9.70;4.07;;;15.00;77.00;;;;;;1989692;28;20159;-72
2021/12/24 04:11:51;;;;;;;8.87;4.90;;;15.30;77.20;;;;;;1989392;28;20684;-72
2021/12/24 04:12:50;;;;;;;8.80;5.30;;;15.10;77.10;;;;;;1989497;28;20178;-72
2021/12/24 04:13:48;;;;;;;8.43;5.50;;;15.00;77.00;;;;;;1989561;28;20193;-72
2021/12/24 04:14:47;;;;;;;8.23;4.50;;;15.00;77.00;;;;;;1989425;28;20277;-72
2021/12/24 04:15:45;;;;;;;7.83;4.60;;;15.00;77.00;;;;;;1989514;28;20170;-71
2021/12/24 04:16:44;;;;;;;8.83;4.77;;;15.00;77.20;;;;;;1989242;28;20194;-72
2021/12/24 04:17:44;;;;;;;8.40;4.57;;;15.00;77.10;;;;;;1989262;28;20171;-72
2021/12/24 04:24:51;;;;;;;10.23;4.97;;;15.00;77.10;;;;;;1989561;28;20598;-72
2021/12/24 04:25:30;;;;;;;10.57;5.20;;;15.00;77.60;;;;;;1989286;28;20615;-71
2021/12/24 04:26:28;;;;;;;8.07;4.68;;;15.00;77.50;;;;;;1989179;28;20194;-71
2021/12/24 04:27:29;;;;;;;10.60;5.53;;;15.00;77.60;;;;;;1989285;28;20213;-72
2021/12/24 04:28:27;;;;;;;7.70;5.10;;;15.00;77.60;;;;;;1989194;28;20889;-71
2021/12/24 04:29:27;;;;;;;10.63;5.10;;;15.00;77.50;;;;;;1989371;28;20186;-71
2021/12/24 04:30:33;;;;;;;10.27;5.72;;;15.20;77.70;;;;;;1989175;28;20166;-72
2021/12/24 04:31:41;;;;;;;9.35;4.78;;;15.00;77.40;;;;;;1988490;28;20190;-71
2021/12/24 04:34:02;;;;;;;11.00;5.40;;;15.00;77.50;;;;;;1989386;28;20163;-71
2021/12/24 04:35:16;;;;;;;7.97;5.20;;;15.00;77.70;;;;;;1989099;28;20576;-71
2021/12/24 04:38:47;;;;;;;8.52;4.63;;;15.10;78.00;;;;;;1989207;28;20159;-72
2021/12/24 04:39:56;;;;;;;10.50;5.60;;;15.10;77.90;;;;;;1989338;28;20517;-72
2021/12/24 04:51:02;;;;;;;8.95;4.75;;;15.10;77.90;;;;;;1989122;28;20210;-72
2021/12/24 04:51:33;;;;;;;8.85;5.70;;;15.10;78.10;;;;;;1989031;28;20154;-71
2021/12/24 05:01:46;;;;;;;9.50;5.10;;;15.10;76.60;;;;;;1989053;28;20163;-72
2021/12/24 05:04:04;;;;;;;9.52;5.28;;;15.10;76.50;;;;;;1988737;28;20158;-72
2021/12/24 05:05:36;;;;;;;11.35;5.13;;;15.10;76.80;;;;;;1988326;28;20181;-72
2021/12/24 05:08:47;;;;;;;8.90;5.38;;;15.20;77.50;;;;;;1972749;29;20191;-72
2021/12/24 05:09:46;;;;;;;7.57;4.68;;;15.00;77.50;;;;;;1987317;28;20206;-72
2021/12/24 05:10:45;;;;;;;9.77;5.07;;;15.00;77.70;;;;;;1988979;28;20198;-72
2021/12/24 05:11:43;;;;;;;9.33;5.10;;;15.00;77.80;;;;;;1988973;28;20163;-72
2021/12/24 05:12:43;;;;;;;8.40;4.83;;;15.00;77.70;;;;;;1988976;28;20401;-72
2021/12/24 05:13:42;;;;;;;9.02;5.00;;;15.00;77.90;;;;;;1988905;28;20230;-72
2021/12/24 05:14:40;;;;;;;7.93;4.80;;;15.00;78.20;;;;;;1988911;28;20181;-72
2021/12/24 05:15:41;;;;;;;7.80;4.90;;;15.00;78.20;;;;;;1988937;28;20198;-72
2021/12/24 05:16:44;;;;;;;11.70;4.38;;;15.00;78.20;;;;;;1988200;28;20194;-72
2021/12/24 05:18:08;;;;;;;9.40;4.70;;;15.00;78.20;;;;;;1988390;28;20154;-72
2021/12/24 05:21:42;;;;;;;7.53;4.72;;;14.90;78.70;;;;;;1988919;28;20170;-72
2021/12/24 05:22:40;;;;;;;9.77;5.50;;;14.90;79.10;;;;;;1989094;28;20581;-72
2021/12/24 05:23:40;;;;;;;8.93;4.80;;;14.90;79.20;;;;;;1988923;28;20174;-71
2021/12/24 05:24:38;;;;;;;10.63;5.15;;;14.90;79.10;;;;;;1988860;28;20175;-70
2021/12/24 05:25:42;;;;;;;9.97;4.93;;;14.90;79.30;;;;;;1988998;28;20170;-72
2021/12/24 05:26:43;;;;;;;9.77;5.03;;;14.90;79.50;;;;;;1988993;28;20187;-71
2021/12/24 05:27:42;;;;;;;11.60;5.18;;;14.90;79.70;;;;;;1988870;28;20178;-71
2021/12/24 05:28:41;;;;;;;13.57;5.33;;;15.00;79.80;;;;;;1988953;28;20547;-70
2021/12/24 05:29:40;;;;;;;9.75;5.47;;;15.00;79.80;;;;;;1988796;28;20159;-70
2021/12/24 05:30:39;;;;;;;7.63;4.33;;;14.90;80.20;;;;;;1988228;28;20257;-71
2021/12/24 05:31:38;;;;;;;8.95;5.18;;;14.90;80.20;;;;;;1988001;28;20186;-71
2021/12/24 05:32:36;;;;;;;8.20;4.97;;;14.90;80.30;;;;;;1988755;28;20170;-71
2021/12/24 05:33:35;;;;;;;8.37;5.00;;;14.90;80.40;;;;;;1988952;28;20261;-71
2021/12/24 05:34:34;;;;;;;11.27;5.55;;;14.90;80.70;;;;;;1988909;28;20576;-71
2021/12/24 05:35:33;;;;;;;9.63;5.27;;;14.90;80.90;;;;;;1988821;28;20260;-70
2021/12/24 05:36:31;;;;;;;10.00;5.40;;;15.10;81.30;;;;;;1988753;28;20202;-70
2021/12/24 05:37:30;;;;;;;7.53;4.57;;;15.00;81.30;;;;;;1988878;28;20253;-70
2021/12/24 05:38:30;;;;;;;8.70;5.30;;;15.00;81.60;;;;;;1988976;28;20249;-70
2021/12/24 05:39:29;;;;;;;8.63;5.50;;;14.90;81.40;;;;;;1988888;28;20228;-71
2021/12/24 05:40:27;;;;;;;10.17;4.90;;;15.00;81.60;;;;;;1988770;28;20190;-71
2021/12/24 05:41:26;;;;;;;11.60;6.07;;;15.00;82.00;;;;;;1988808;28;20189;-71
2021/12/24 05:42:27;;;;;;;9.13;5.15;;;15.00;81.50;;;;;;1988776;28;20198;-70
2021/12/24 05:43:25;;;;;;;12.05;5.40;;;15.00;81.70;;;;;;1988806;28;20182;-70
2021/12/24 05:44:24;;;;;;;9.60;5.60;;;15.00;82.00;;;;;;1988855;28;20637;-70
2021/12/24 05:45:24;;;;;;;6.13;4.60;;;15.00;82.20;;;;;;1988845;28;20547;-71
2021/12/24 05:46:23;;;;;;;9.20;5.25;;;15.00;82.50;;;;;;1988691;28;20241;-71
2021/12/24 05:47:21;;;;;;;11.40;5.40;;;15.00;82.60;;;;;;1990013;28;20324;-71
2021/12/24 05:48:20;;;;;;;9.17;5.70;;;15.00;83.30;;;;;;1990487;28;20174;-71
2021/12/24 05:49:19;;;;;;;7.33;4.50;;;15.00;83.40;;;;;;1990464;28;20199;-71
2021/12/24 05:50:18;;;;;;;8.53;5.47;;;14.90;83.00;;;;;;1989681;28;20238;-71
2021/12/24 05:51:16;;;;;;;9.10;4.93;;;14.90;82.80;;;;;;1989833;28;20405;-71
2021/12/24 05:52:14;;;;;;;11.07;5.67;;;14.90;84.20;;;;;;1990298;28;20401;-71
2021/12/24 05:53:13;;;;;;;11.60;6.30;;;14.90;84.20;;;;;;1990318;28;20179;-71
2021/12/24 05:54:12;;;;;;;9.00;4.80;;;14.90;83.60;;;;;;1990357;28;20183;-71
2021/12/24 05:55:11;;;;;;;10.57;5.55;;;14.90;82.50;;;;;;1990312;28;20202;-71
2021/12/24 05:56:10;;;;;;;11.73;5.67;;;14.90;82.40;;;;;;1990251;28;20183;-71
2021/12/24 05:57:08;;;;;;;8.43;4.70;;;14.90;82.60;;;;;;1989626;28;20182;-70
2021/12/24 05:58:08;;;;;;;7.80;4.90;;;;;;;;;;1989787;28;20183;-71
2021/12/24 05:59:06;;;;;;;8.40;5.13;;;15.00;72.60;;;;;;1990286;28;20177;-71
2021/12/24 06:00:08;;;;;;;11.07;5.70;;;14.90;75.20;;;;;;1990319;28;20217;-71
2021/12/24 06:01:07;;;;;;;10.25;5.18;;;14.90;74.50;;;;;;1990244;28;20197;-71
2021/12/24 06:02:06;;;;;;;9.53;5.03;;;14.90;74.50;;;;;;1990272;28;20186;-71
2021/12/24 06:03:08;;;;;;;11.25;5.38;;;15.00;74.30;;;;;;1990319;28;20265;-71
2021/12/24 06:04:06;;;;;;;6.90;4.22;;;15.00;74.20;;;;;;1990384;28;20222;-71
2021/12/24 06:05:05;;;;;;;8.43;5.33;;;14.90;74.10;;;;;;1990280;28;20534;-71
2021/12/24 06:06:05;;;;;;;8.85;4.85;;;15.00;74.30;;;;;;1990095;28;20178;-70
2021/12/24 06:07:04;;;;;;;9.15;4.35;;;15.00;74.30;;;;;;1990303;28;20638;-70
2021/12/24 06:08:04;;;;;;;9.70;5.50;;;14.90;74.10;;;;;;1990259;28;20202;-71
2021/12/24 06:09:03;;;;;;;6.72;5.00;;;14.90;73.80;;;;;;1990112;28;20185;-70
2021/12/24 06:10:02;;;;;;;9.05;5.50;;;14.90;73.80;;;;;;1990135;28;20725;-70
2021/12/24 06:11:01;;;;;;;9.45;5.05;;;15.00;73.90;;;;;;1990151;28;20662;-71
2021/12/24 06:11:59;;;;;;;8.33;5.47;;;14.90;73.70;;;;;;1990162;28;20229;-71
2021/12/24 06:12:58;;;;;;;10.63;5.70;;;14.90;73.80;;;;;;1990343;28;20190;-71
2021/12/24 06:13:57;;;;;;;11.37;5.80;;;14.90;73.80;;;;;;1989480;28;20199;-71
2021/12/24 06:15:01;;;;;;;7.80;4.80;;;14.90;73.80;;;;;;1989527;28;20171;-71
2021/12/24 06:16:00;;;;;;;8.77;5.63;;;14.90;73.70;;;;;;1990199;28;20226;-70
2021/12/24 06:17:02;;;;;;;11.40;5.23;;;15.00;73.90;;;;;;1990262;28;20249;-70
2021/12/24 06:18:01;;;;;;;9.13;5.40;;;15.00;73.80;;;;;;1989519;28;20424;-71
2021/12/24 06:19:01;;;;;;;8.83;5.70;;;15.00;73.90;;;;;;1990447;28;20182;-71
2021/12/24 06:20:00;;;;;;;7.80;5.15;;;15.00;73.80;;;;;;1989868;28;20202;-71
2021/12/24 06:21:01;;;;;;;8.67;4.40;;;15.00;73.80;;;;;;1989627;28;20610;-71
2021/12/24 06:22:01;;;;;;;9.05;5.50;;;15.00;73.70;;;;;;1990074;28;20193;-71
2021/12/24 06:23:00;;;;;;;8.80;4.72;;;15.00;73.70;;;;;;1990171;28;20189;-71
2021/12/24 06:23:58;;;;;;;10.00;5.27;;;15.00;73.90;;;;;;1990137;28;20179;-71
2021/12/24 06:24:57;;;;;;;6.90;4.97;;;15.10;73.80;;;;;;1990345;28;20406;-71
2021/12/24 06:25:58;;;;;;;8.10;4.90;;;15.00;73.70;;;;;;1990212;28;20397;-71
2021/12/24 06:26:56;;;;;;;8.52;4.78;;;15.00;73.80;;;;;;1989464;28;20201;-72
2021/12/24 06:27:55;;;;;;;8.60;5.13;;;15.00;73.90;;;;;;1989684;28;20230;-70
2021/12/24 06:28:53;;;;;;;8.17;5.30;;;15.00;73.70;;;;;;1990211;28;20166;-71
2021/12/24 06:29:53;;;;;;;11.07;5.80;;;15.10;73.90;;;;;;1990290;28;20499;-71
2021/12/24 06:30:53;;;;;;;11.05;5.97;;;15.20;73.90;;;;;;1990225;28;20163;-71
2021/12/24 06:31:52;;;;;;;6.13;4.13;;;15.00;73.70;;;;;;1989971;28;20214;-71
2021/12/24 06:32:50;;;;;;;8.47;5.53;;;15.00;73.70;;;;;;1989649;28;20170;-71
2021/12/24 06:33:49;;;;;;;8.10;5.57;;;15.00;73.70;;;;;;1989595;28;20473;-71
2021/12/24 06:34:49;;;;;;;10.33;5.70;;;15.10;73.80;;;;;;1988864;28;20178;-71
2021/12/24 06:35:48;;;;;;;10.18;5.57;;;15.00;73.60;;;;;;1989351;28;20170;-71
2021/12/24 06:36:48;;;;;;;9.97;6.37;;;15.00;73.60;;;;;;1989339;28;20198;-72
2021/12/24 06:37:47;;;;;;;8.98;5.78;;;15.00;73.70;;;;;;1990055;28;20185;-71
2021/12/24 06:38:45;;;;;;;8.30;5.17;;;15.00;73.60;;;;;;1990126;28;20189;-70
2021/12/24 06:39:44;;;;;;;10.27;5.63;;;15.00;73.70;;;;;;1990078;28;20170;-70
2021/12/24 06:40:43;;;;;;;8.20;5.43;;;15.00;73.80;;;;;;1990069;28;20646;-70
2021/12/24 06:41:42;;;;;;;8.97;5.20;;;15.00;73.90;;;;;;1989949;28;20178;-71
2021/12/24 06:42:40;;;;;;;9.63;5.47;;;15.00;73.80;;;;;;1989988;28;20213;-71
2021/12/24 06:43:39;;;;;;;7.03;5.10;;;15.00;73.80;;;;;;1990040;28;20179;-70